Terminal Aerodrome Forecast
Issued by NWS

Home | Current Version | Previous Version | Text Only | Print | Product List | Glossary On
Versions: 1 2 3 4 5 6 7 8 9 10 11 12 13 14 15 16 17 18 19 20 21
000
FTUS44 KLIX 251453 AAB
TAFGPT
TAF AMD
KGPT 251453Z 2515/2612 09006KT P6SM VCTS SCT025 BKN035CB
      TEMPO 2515/2518 VRB20KT 3SM -TSRA BKN025CB
     FM251800 11007KT P6SM VCTS BKN030CB BKN080
     FM260000 14007KT P6SM SCT020 BKN100
     FM260800 VRB03KT P6SM SCT020 BKN150=

USA.gov is the U.S. government's official web portal to all federal, state and local government web resources and services.